Main page
METAR-TAF:

METAR-TAF

Airports :

Ibiza Airport

Ibiza, Spain

latitude: 38-52N, longitude: 001-23E, elevation: 7 m

Current weather observation

The report was made 13 minutes ago, at 21:00 UTC
Wind 2 kt from variable directions
Temperature 9°C
Humidity 93%
Pressure 1023 hPa
Visibility 10 km or more
Few clouds at a height of 2000 ft

METAR: LEIB 102100Z VRB02KT 9999 FEW020 09/08 Q1023 NOSIG

Time: 22:13 (21:13 UTC)

Forecast

The report was made 1 hour and 13 minutes ago, at 20:00 UTC
Forecast valid from 10 at 21 UTC to 11 at 21 UTC
Wind 7 kt from the Southwest
Visibility 10 km or more
no clouds below 1500 m and no cumulonimbus
Becoming
from 11 at 10 UTC to 11 at 12 UTC
Wind 10 kt from the West/Southwest
Becoming
from 11 at 16 UTC to 11 at 19 UTC
Wind 14 kt from the Northwest

TAF: LEIB 102000Z 1021/1121 22007KT CAVOK TX17/1112Z TN10/1106Z BECMG 1110/1112 25010KT BECMG 1116/1119 31014KT

Weather observations and forecasts of more than 4000 airports (METAR and TAF reports).

The available stations are represented by yellow and red dots on the map.

Hover mouse over dot to see the name of the station.

Then click to see weather observations and forecasts.

To change the map : click on the green buttons with a black cross to zoom in, on the green button with a dash to zoom out, or on the green arrows for adjacent maps.


METAR-TAF: